Accueil
METAR-TAF:

METAR-TAF

Aéroports :

Aéroport international de Düsseldorf

Düsseldorf, Allemagne

latitude: 51-18N, longitude: 006-46E, altitude: 45 m

Observation

Le bulletin a été fait il y a 29 minutes, à 02:50 UTC
Vent 4 kt de nord
Température 3°C
Humidité 81%
Pression 1025 hPa
Visibilité 10 km ou plus
pas de nuages en-dessous de 1500 mètres et pas de cumulonimbus.

METAR: EDDL 170250Z 35004KT CAVOK 03/M00 Q1025 NOSIG

Heure: 05:19 (03:19 UTC)

Prévision

Le bulletin a été fait il y a 4 heures et 19 minutes, à 23:00 UTC
Prévision valable du 17 à 00 UTC au 18 à 06 UTC
Vent 4 kt de nord
Visibilité 10 km ou plus
pas de nuages en-dessous de 1500 mètres et pas de cumulonimbus.
Evoluant progressivement
du 17 à 06 UTC au 17 à 08 UTC
Vent 9 kt de nord
Evoluant progressivement
du 17 à 17 UTC au 17 à 20 UTC
Vent 4 kt de nord

TAF: EDDL 162300Z 1700/1806 36004KT CAVOK BECMG 1706/1708 36009KT BECMG 1717/1720 36004KT

Observations et prévisions météorologiques de plus de 4000 aéroports (messages METAR et TAF).

Les stations disponibles sont représentées par des disques jaunes et rouges sur la carte.

Passer la souris dessus pour voir le nom de la station.

Cliquer dessus pour voir les observations et prévisions météorologiques.

Pour changer de carte: cliquez sur les boutons verts avec une croix noire pour zoomer, sur le bouton vert avec un tiret pour effectuer un zoom arrière, ou sur les flèches vertes pour les cartes adjacentes.


METAR-TAF: